createdAt,value
2022-11-24T00:00:00.913Z,32.70
2022-11-24T00:05:07.036Z,38.90
2022-11-24T00:10:10.431Z,34.50
2022-11-24T00:15:13.515Z,33.10
2022-11-24T00:20:16.476Z,34.40
2022-11-24T00:25:19.312Z,39.20
2022-11-24T00:30:22.139Z,37.00
2022-11-24T00:35:24.977Z,36.50
2022-11-24T00:40:33.587Z,36.40
2022-11-24T00:45:37.973Z,31.10
2022-11-24T00:50:46.202Z,34.80
2022-11-24T00:55:52.525Z,37.90
2022-11-24T01:00:56.456Z,37.50
2022-11-24T01:06:19.049Z,36.80
2022-11-24T01:11:27.561Z,35.60
2022-11-24T01:16:33.375Z,37.00
2022-11-24T01:21:36.525Z,37.50
2022-11-24T01:26:41.166Z,37.40
2022-11-24T01:31:46.713Z,38.90
2022-11-24T01:36:49.657Z,38.00
2022-11-24T01:41:52.957Z,41.20
2022-11-24T01:47:01.027Z,43.00
2022-11-24T01:52:17.948Z,41.40
2022-11-24T01:57:30.555Z,42.00
2022-11-24T02:02:33.780Z,37.20
2022-11-24T02:07:36.674Z,36.80
2022-11-24T02:12:41.140Z,34.00
2022-11-24T02:17:46.392Z,33.70
2022-11-24T02:23:12.904Z,31.70
2022-11-24T02:28:19.045Z,31.90
2022-11-24T02:33:22.023Z,30.30
2022-11-24T02:38:30.865Z,27.00
2022-11-24T02:43:39.437Z,28.00
2022-11-24T02:48:42.901Z,24.70
2022-11-24T02:53:45.910Z,22.80
2022-11-24T02:58:49.351Z,21.90
2022-11-24T03:03:52.163Z,22.20
2022-11-24T03:08:54.964Z,23.90
2022-11-24T03:13:57.750Z,22.20
2022-11-24T03:19:00.760Z,19.40
2022-11-24T03:24:03.949Z,20.00
2022-11-24T03:29:06.688Z,19.80
2022-11-24T03:34:09.877Z,22.20
2022-11-24T03:39:12.759Z,19.30
2022-11-24T03:44:15.562Z,20.10
2022-11-24T03:49:18.531Z,21.10
2022-11-24T03:54:22.836Z,21.90
2022-11-24T03:59:26.394Z,20.00
2022-11-24T04:04:29.156Z,20.80
2022-11-24T04:09:31.938Z,22.40
2022-11-24T04:14:35.136Z,19.10
2022-11-24T04:19:38.213Z,20.20
2022-11-24T04:24:41.237Z,19.70
2022-11-24T04:29:46.253Z,20.70
2022-11-24T04:34:49.333Z,21.10
2022-11-24T04:39:52.363Z,20.60
2022-11-24T04:44:56.515Z,22.80
2022-11-24T04:50:01.175Z,22.00
2022-11-24T04:55:05.626Z,20.00
2022-11-24T05:00:09.366Z,20.40
2022-11-24T05:05:12.721Z,20.30
2022-11-24T05:10:35.234Z,20.40
2022-11-24T05:15:40.502Z,20.00
2022-11-24T05:20:44.869Z,22.70
2022-11-24T05:25:48.153Z,19.10
2022-11-24T05:30:51.057Z,20.40
2022-11-24T05:35:54.623Z,32.80
2022-11-24T05:41:05.202Z,25.40
2022-11-24T05:46:08.039Z,25.00
2022-11-24T05:51:13.456Z,21.80
2022-11-24T05:56:17.098Z,18.60
2022-11-24T06:01:19.896Z,18.60
2022-11-24T06:06:23.347Z,16.60
2022-11-24T06:11:27.651Z,19.50
2022-11-24T06:16:30.654Z,17.80
2022-11-24T06:21:34.268Z,19.20
2022-11-24T06:26:37.095Z,16.40
2022-11-24T06:31:41.941Z,19.30
2022-11-24T06:36:45.011Z,21.20
2022-11-24T06:41:50.418Z,18.00
2022-11-24T06:46:53.689Z,17.90
2022-11-24T06:51:56.995Z,18.50
2022-11-24T06:57:00.838Z,17.90
2022-11-24T07:02:05.231Z,19.10
2022-11-24T07:07:08.251Z,21.90
2022-11-24T07:12:11.160Z,21.80
2022-11-24T07:17:15.293Z,22.10
2022-11-24T07:22:18.316Z,22.70
2022-11-24T07:27:21.164Z,22.50
2022-11-24T07:32:25.429Z,23.70
2022-11-24T07:37:31.531Z,23.50
2022-11-24T07:42:35.029Z,24.20
2022-11-24T07:47:42.391Z,20.20
2022-11-24T07:52:45.298Z,24.30
2022-11-24T07:57:48.193Z,25.90
2022-11-24T08:02:50.997Z,22.20
2022-11-24T08:07:54.047Z,25.70
2022-11-24T08:13:01.341Z,23.70
2022-11-24T08:18:05.789Z,24.70
2022-11-24T08:23:09.088Z,26.10
2022-11-24T08:28:12.022Z,23.40
2022-11-24T08:33:15.163Z,22.80
2022-11-24T08:38:17.962Z,23.20
2022-11-24T08:43:20.806Z,22.20
2022-11-24T08:48:23.675Z,20.50
2022-11-24T08:53:27.160Z,21.70
2022-11-24T08:58:30.219Z,21.60
2022-11-24T09:03:33.171Z,23.30
2022-11-24T09:08:37.164Z,22.60
2022-11-24T09:13:40.276Z,19.50
2022-11-24T09:18:43.812Z,21.20
2022-11-24T09:23:50.279Z,19.80
2022-11-24T09:28:54.708Z,19.40
2022-11-24T09:33:57.912Z,19.10
2022-11-24T09:39:00.814Z,19.70
2022-11-24T09:44:10.168Z,18.70
2022-11-24T09:49:18.005Z,18.30
2022-11-24T09:54:25.090Z,18.50
2022-11-24T09:59:28.685Z,20.20
2022-11-24T10:04:36.926Z,18.10
2022-11-24T10:09:55.442Z,16.90
2022-11-24T10:15:09.326Z,18.70
2022-11-24T10:20:44.873Z,19.30
2022-11-24T10:26:00.778Z,20.10
2022-11-24T10:31:54.009Z,23.90
2022-11-24T10:37:11.122Z,22.20
2022-11-24T10:42:37.027Z,21.10
2022-11-24T10:47:41.907Z,18.70
2022-11-24T10:53:26.468Z,19.80
2022-11-24T10:58:39.885Z,19.70
2022-11-24T11:03:48.041Z,19.50
2022-11-24T11:09:13.838Z,19.80
2022-11-24T11:14:31.848Z,17.80
2022-11-24T11:19:49.549Z,20.90
2022-11-24T11:25:11.731Z,18.70
2022-11-24T11:35:40.779Z,21.00
2022-11-24T11:40:43.912Z,19.50
2022-11-24T11:46:11.898Z,19.80
2022-11-24T11:51:57.290Z,20.70
2022-11-24T11:57:49.984Z,20.60
2022-11-24T12:03:25.465Z,20.30
2022-11-24T12:14:43.883Z,20.60
2022-11-24T12:20:41.661Z,24.80
2022-11-24T12:26:33.434Z,20.10
2022-11-24T12:31:52.047Z,24.50
2022-11-24T12:37:24.265Z,22.90
2022-11-24T12:42:40.375Z,19.10
2022-11-24T12:47:52.773Z,21.40
2022-11-24T12:53:28.610Z,21.50
2022-11-24T12:59:13.239Z,20.50
2022-11-24T13:04:36.134Z,21.80
2022-11-24T13:10:30.140Z,21.70
2022-11-24T13:16:13.180Z,21.20
2022-11-24T13:21:30.959Z,19.50
2022-11-24T13:26:43.449Z,18.90
2022-11-24T13:31:47.550Z,18.20
2022-11-24T13:36:53.802Z,20.80
2022-11-24T13:42:00.397Z,21.60
2022-11-24T13:47:35.200Z,18.80
2022-11-24T13:52:42.202Z,20.90
2022-11-24T13:58:11.368Z,21.60
2022-11-24T14:03:26.055Z,23.70
2022-11-24T14:08:32.361Z,21.70
2022-11-24T14:13:35.334Z,27.80
2022-11-24T14:18:40.321Z,29.90
2022-11-24T14:23:51.317Z,32.30
2022-11-24T14:28:54.226Z,27.00
2022-11-24T14:34:12.457Z,20.90
2022-11-24T14:39:19.847Z,25.80
2022-11-24T14:44:24.322Z,26.00
2022-11-24T14:49:27.208Z,26.80
2022-11-24T14:54:30.126Z,27.70
2022-11-24T14:59:36.327Z,30.30
2022-11-24T15:05:02.849Z,32.10
2022-11-24T15:10:19.324Z,34.90
2022-11-24T15:15:26.391Z,32.70
2022-11-24T15:20:35.361Z,35.60
2022-11-24T15:25:39.210Z,31.00
2022-11-24T15:30:42.243Z,35.10
2022-11-24T15:35:45.860Z,34.20
2022-11-24T15:40:51.135Z,42.30
2022-11-24T15:45:53.967Z,37.70
2022-11-24T15:50:58.135Z,38.60
2022-11-24T15:56:02.512Z,32.70
2022-11-24T16:01:05.581Z,37.70
2022-11-24T16:06:15.015Z,39.70
2022-11-24T16:11:20.771Z,42.00
2022-11-24T16:16:25.403Z,46.00
2022-11-24T16:21:28.405Z,46.20
2022-11-24T16:26:31.373Z,46.10
2022-11-24T16:31:34.610Z,47.60
2022-11-24T16:36:37.450Z,46.40
2022-11-24T16:41:40.536Z,49.10
2022-11-24T16:46:43.354Z,53.10
2022-11-24T16:51:46.212Z,48.80
2022-11-24T16:56:49.178Z,48.90
2022-11-24T17:01:55.252Z,51.00
2022-11-24T17:06:58.580Z,47.70
2022-11-24T17:12:01.463Z,44.30
2022-11-24T17:17:04.348Z,44.10
2022-11-24T17:22:07.294Z,46.30
2022-11-24T17:27:10.530Z,49.40
2022-11-24T17:32:13.550Z,51.50
2022-11-24T17:37:16.458Z,49.20
2022-11-24T17:42:19.338Z,51.40
2022-11-24T17:47:22.240Z,52.00
2022-11-24T17:52:26.056Z,56.00
2022-11-24T17:57:28.979Z,53.20
2022-11-24T18:02:32.343Z,53.40
2022-11-24T18:07:36.713Z,62.70
2022-11-24T18:12:39.751Z,61.90
2022-11-24T18:17:42.594Z,56.70
2022-11-24T18:28:08.590Z,55.50
2022-11-24T18:33:11.511Z,57.80
2022-11-24T18:38:14.376Z,56.10
2022-11-24T18:43:17.299Z,58.80
2022-11-24T18:48:25.028Z,59.00
2022-11-24T18:53:29.041Z,53.10
2022-11-24T18:58:33.770Z,61.00
2022-11-24T19:03:42.323Z,66.00
2022-11-24T19:08:48.491Z,63.10
2022-11-24T19:13:51.638Z,70.30
2022-11-24T19:19:02.738Z,66.80
2022-11-24T19:24:07.793Z,68.80
2022-11-24T19:29:10.574Z,65.60
2022-11-24T19:34:14.974Z,67.40
2022-11-24T19:39:17.929Z,73.40
2022-11-24T19:44:20.803Z,73.90
2022-11-24T19:49:23.608Z,74.30
2022-11-24T19:54:26.446Z,74.90
2022-11-24T19:59:29.688Z,70.70
2022-11-24T20:04:33.727Z,83.80
2022-11-24T20:09:36.783Z,75.50
2022-11-24T20:14:39.604Z,77.80
2022-11-24T20:19:42.993Z,79.20
2022-11-24T20:24:46.331Z,79.70
2022-11-24T20:29:49.206Z,77.50
2022-11-24T20:34:52.364Z,68.60
2022-11-24T20:39:57.931Z,64.40
2022-11-24T20:45:01.069Z,71.80
2022-11-24T20:50:04.502Z,67.80
2022-11-24T20:55:07.945Z,64.70
2022-11-24T21:00:12.183Z,63.30
2022-11-24T21:05:15.095Z,65.70
2022-11-24T21:10:18.819Z,65.60
2022-11-24T21:15:23.789Z,65.10
2022-11-24T21:20:26.565Z,75.30
2022-11-24T21:25:30.311Z,88.90
2022-11-24T21:30:34.632Z,89.00
2022-11-24T21:35:37.580Z,83.20
2022-11-24T21:40:40.437Z,88.90
2022-11-24T21:45:43.306Z,94.70
2022-11-24T21:50:46.226Z,93.80
2022-11-24T21:55:56.936Z,73.30
2022-11-24T22:01:10.170Z,71.80
2022-11-24T22:06:13.284Z,82.20
2022-11-24T22:11:22.094Z,81.80
2022-11-24T22:16:25.721Z,82.50
2022-11-24T22:21:30.685Z,85.00
2022-11-24T22:26:33.521Z,79.00
2022-11-24T22:31:36.377Z,82.50
2022-11-24T22:36:39.252Z,77.10
2022-11-24T22:41:41.995Z,71.00
2022-11-24T22:46:44.821Z,79.10
2022-11-24T22:51:47.742Z,74.60
2022-11-24T22:56:50.626Z,63.70
2022-11-24T23:01:53.412Z,70.60
2022-11-24T23:06:56.234Z,66.20
2022-11-24T23:11:59.040Z,67.60
2022-11-24T23:17:01.867Z,71.70
2022-11-24T23:22:04.707Z,75.20
2022-11-24T23:27:07.476Z,67.40
2022-11-24T23:32:10.254Z,74.50
2022-11-24T23:37:13.036Z,76.70
2022-11-24T23:42:15.878Z,75.20
2022-11-24T23:47:18.649Z,79.50
2022-11-24T23:52:21.439Z,75.80
2022-11-24T23:57:24.934Z,81.00
